Last 24 Hours

Canyon Lodge - 8,343ft

5 Minute Data | America/Los_Angeles
as of 5/7/26 8:44 PM PDT
Date & Time Temp (°F) RH (%) Dew Pt (°F) Wet Bulb (°F) Wind Dir (°) Wind Spd (mph) Wind Gust (mph) Wind Gst Dir (°)
5/7/26 - 2040 50.0 22 12.4 36.8 SSW | 208 0.1 0.9 SSW | 205
5/7/26 - 2035 51.0 22 13.3 37.5 NNE | 26 1.1 4.6 NNE | 23
5/7/26 - 2030 50.0 22 12.9 36.9 NW | 325 0.1 1.5 NNW | 331
5/7/26 - 2025 49.7 22 11.9 36.6 WNW | 295 0.1 1.2 S | 189
5/7/26 - 2020 50.3 22 13.0 37.1 NNW | 335 0.2 2.4 NNW | 331
5/7/26 - 2015 51.4 22 13.7 37.8 N | 1 1.1 3.7 N | 9
5/7/26 - 2010 51.7 22 14.0 38.0 N | 353 2.1 4.3 NNW | 341
5/7/26 - 2005 52.1 22 14.0 38.2 NE | 36 1.1 4.2 NNE | 13
5/7/26 - 2000 52.3 22 14.7 38.4 N | 359 0.9 4.1 N | 1
5/7/26 - 1955 52.8 22 14.8 38.7 N | 11 1.5 4.3 NNE | 21
5/7/26 - 1950 52.8 22 14.8 38.7 N | 5 1.8 5.7 N | 9
5/7/26 - 1945 52.7 22 15.4 38.8 SSE | 159 1.9 9.5 SSW | 202
5/7/26 - 1940 52.7 23 15.7 38.8 SW | 220 2.5 10.1 NNW | 348
5/7/26 - 1935 52.9 23 15.9 39.0 WSW | 240 1.7 7.3 SSE | 151
5/7/26 - 1930 52.9 23 15.8 39.0 WSW | 244 1.6 8.5 SSE | 151
5/7/26 - 1925 53.1 23 16.0 39.1 SSW | 208 1.8 8.8 S | 189
5/7/26 - 1920 53.4 23 16.4 39.3 SW | 236 1.6 8.2 SW | 222
5/7/26 - 1915 53.5 23 16.6 39.4 SSW | 208 2.1 8.4 SSW | 209
5/7/26 - 1910 53.7 23 16.7 39.6 SSW | 206 4.4 12.8 SSE | 158
5/7/26 - 1905 53.7 23 16.8 39.6 SSW | 201 1.8 14.3 W | 276
5/7/26 - 1900 54.1 23 17.3 39.9 SW | 225 2.9 11.8 W | 276
5/7/26 - 1855 54.4 23 17.9 40.2 WSW | 237 3.9 11.6 WSW | 250
5/7/26 - 1850 54.6 23 17.9 40.2 SW | 221 2.2 11.4 WSW | 245
5/7/26 - 1845 54.7 23 18.0 40.3 SW | 228 4.3 11.6 WSW | 240
5/7/26 - 1840 54.7 23 17.9 40.3 SSW | 204 2.5 13.8 SW | 229
5/7/26 - 1835 54.9 23 18.2 40.5 SSW | 212 3.9 13.3 SSW | 213
5/7/26 - 1830 55.1 23 18.5 40.6 SW | 220 2.9 11.5 SW | 225
5/7/26 - 1825 55.4 24 18.8 40.8 WSW | 253 3.7 10.6 W | 272
5/7/26 - 1820 55.5 23 18.7 40.9 SW | 220 3.6 11.8 SSW | 212
5/7/26 - 1815 55.5 23 18.7 40.8 SW | 227 4.3 11.0 WSW | 256
5/7/26 - 1810 55.7 23 18.6 41.0 SW | 218 5.9 18.8 SSE | 167
5/7/26 - 1805 56.0 23 18.4 41.0 SW | 218 4.3 10.5 WSW | 258
5/7/26 - 1800 56.2 23 18.5 41.1 SSW | 196 4.0 10.0 W | 275
5/7/26 - 1755 56.4 23 18.8 41.3 SSW | 209 4.1 10.3 S | 190
5/7/26 - 1750 56.5 23 19.1 41.4 SW | 214 4.4 13.2 S | 169
5/7/26 - 1745 56.8 23 19.5 41.6 SW | 225 2.8 13.3 S | 186
5/7/26 - 1740 57.2 23 19.9 42.0 SW | 224 3.5 10.2 SW | 214
5/7/26 - 1735 57.0 23 19.8 41.8 SSW | 210 5.7 12.8 S | 187
5/7/26 - 1730 57.2 23 20.0 42.0 SSW | 203 6.1 14.9 SSW | 201
5/7/26 - 1725 57.6 23 20.4 42.2 SSW | 193 5.7 17.7 SSE | 159
5/7/26 - 1720 57.5 24 20.5 42.2 SSW | 198 6.2 14.9 S | 177
5/7/26 - 1715 57.7 24 21.0 42.4 SW | 228 4.7 12.9 SW | 221
5/7/26 - 1710 58.4 24 21.9 43.0 SW | 236 3.1 10.3 W | 272
5/7/26 - 1705 58.4 24 22.1 43.0 SW | 224 3.6 12.6 SSW | 211
5/7/26 - 1700 59.4 24 23.1 43.7 SSW | 197 1.8 10.0 S | 173
5/7/26 - 1655 59.0 24 22.4 43.4 SW | 235 4.0 11.4 WSW | 256
5/7/26 - 1650 59.1 24 22.6 43.5 SW | 218 3.9 14.0 WNW | 288
5/7/26 - 1645 59.5 24 23.0 43.7 WSW | 244 3.7 14.7 SW | 234
5/7/26 - 1640 58.8 24 22.2 43.2 SSW | 210 6.5 14.2 SSW | 194
5/7/26 - 1635 59.2 24 22.5 43.5 WSW | 239 3.5 10.3 WSW | 247
5/7/26 - 1630 58.7 24 21.7 43.0 WSW | 245 5.1 13.5 W | 273
5/7/26 - 1625 58.9 24 21.8 43.1 SW | 227 4.7 10.9 SSW | 201
5/7/26 - 1620 59.5 24 22.4 43.6 SSW | 210 4.6 14.8 WSW | 256
5/7/26 - 1615 60.0 24 23.0 43.9 SW | 217 3.5 11.6 WNW | 287
5/7/26 - 1610 59.4 24 22.6 43.6 SW | 226 4.8 14.5 W | 268
5/7/26 - 1605 59.5 24 22.9 43.7 SW | 218 5.2 13.4 SSW | 198
5/7/26 - 1600 60.0 24 23.5 44.0 WSW | 238 3.5 10.5 WSW | 257
5/7/26 - 1555 60.0 25 23.6 44.1 SW | 223 4.5 10.2 S | 174
5/7/26 - 1550 59.5 25 23.4 43.8 SW | 236 5.4 12.4 WSW | 237
5/7/26 - 1545 59.8 25 23.8 44.1 SW | 220 4.3 12.6 W | 259
5/7/26 - 1540 59.7 26 24.3 44.2 SW | 226 5.3 12.0 WSW | 238
5/7/26 - 1535 59.8 26 25.0 44.4 SW | 225 5.5 16.2 SSW | 200
5/7/26 - 1530 60.5 27 26.2 45.0 SW | 226 3.2 11.4 S | 170
5/7/26 - 1525 60.8 27 26.3 45.2 SW | 223 3.9 11.6 S | 178
5/7/26 - 1520 60.8 26 26.2 45.1 SW | 234 2.9 13.0 W | 261
5/7/26 - 1515 60.1 27 25.7 44.7 SW | 221 6.0 13.9 SSW | 200
5/7/26 - 1510 59.7 27 25.6 44.5 SSW | 210 6.9 15.9 W | 272
5/7/26 - 1505 60.8 27 26.8 45.3 SW | 214 4.5 10.5 SSW | 198
5/7/26 - 1500 60.9 27 26.8 45.3 SSW | 200 2.3 6.8 WSW | 239
5/7/26 - 1455 60.3 28 26.7 45.1 SSW | 192 4.5 16.1 SSW | 198
5/7/26 - 1450 60.4 28 26.8 45.1 SW | 224 4.2 12.4 SW | 222
5/7/26 - 1445 61.1 27 27.2 45.6 SW | 217 4.1 10.3 SW | 224
5/7/26 - 1440 61.0 28 27.3 45.6 SW | 222 3.4 9.8 WNW | 288
5/7/26 - 1435 61.0 28 27.7 45.7 SW | 225 4.5 14.0 WSW | 248
5/7/26 - 1430 60.2 28 26.7 45.0 SW | 229 4.0 14.1 WSW | 244
5/7/26 - 1425 61.0 28 27.4 45.6 SSW | 196 4.2 13.0 S | 181
5/7/26 - 1420 60.6 28 27.5 45.4 SSW | 194 4.0 11.8 SSW | 196
5/7/26 - 1415 60.5 28 27.5 45.4 SSW | 203 4.7 13.1 SSW | 198
5/7/26 - 1410 60.8 28 27.3 45.4 SSW | 210 5.0 11.8 SSE | 161
5/7/26 - 1405 60.8 28 27.1 45.4 S | 191 4.7 13.2 SSW | 198
5/7/26 - 1400 61.0 28 27.5 45.6 SW | 219 3.5 8.9 SW | 235
5/7/26 - 1355 61.2 28 28.1 45.9 SSW | 202 4.4 14.4 S | 186
5/7/26 - 1350 60.7 29 28.3 45.7 S | 190 4.7 15.9 S | 180
5/7/26 - 1345 60.5 29 28.4 45.7 SSW | 203 5.0 12.9 S | 187
5/7/26 - 1340 61.0 29 28.4 45.9 SSW | 193 6.1 15.9 S | 183
5/7/26 - 1335 61.0 28 28.1 45.8 SW | 224 4.3 12.3 SW | 216
5/7/26 - 1330 61.8 29 29.1 46.4 SSW | 211 2.7 11.9 SW | 218
5/7/26 - 1325 60.5 29 28.0 45.6 SSW | 199 4.6 13.5 S | 170
5/7/26 - 1320 61.2 29 29.0 46.2 SW | 214 3.5 8.5 SW | 224
5/7/26 - 1315 60.9 30 29.2 46.1 SW | 220 3.6 10.1 W | 273
5/7/26 - 1310 60.6 31 29.9 46.2 SSW | 197 4.2 10.6 SSW | 198
5/7/26 - 1305 60.2 31 29.8 46.0 SSW | 193 5.9 12.7 S | 182
5/7/26 - 1300 61.0 31 30.2 46.4 SSW | 201 3.2 10.1 SSE | 166
5/7/26 - 1255 61.2 32 31.2 46.8 SSW | 212 3.5 9.9 S | 172
5/7/26 - 1250 60.6 32 30.7 46.4 SSW | 206 4.0 10.6 SSE | 152
5/7/26 - 1245 60.4 32 30.8 46.4 SSW | 201 4.7 11.6 S | 170
5/7/26 - 1240 60.5 32 30.9 46.5 SSW | 196 3.7 9.6 SE | 146
5/7/26 - 1235 60.4 33 31.1 46.5 SW | 236 4.3 9.4 W | 263
5/7/26 - 1230 60.1 32 30.0 46.0 SW | 223 3.4 9.8 W | 269
5/7/26 - 1225 60.4 32 30.4 46.2 SSW | 209 4.2 13.6 S | 186
5/7/26 - 1220 59.9 32 29.8 45.8 SW | 216 4.6 11.3 WSW | 244
5/7/26 - 1215 60.1 33 30.8 46.2 SW | 220 3.6 8.9 SSW | 202
5/7/26 - 1210 60.3 34 31.7 46.6 SSW | 213 3.9 13.2 SSW | 203
5/7/26 - 1205 59.6 34 31.2 46.2 SW | 235 4.5 11.4 SSW | 201
5/7/26 - 1200 59.8 34 31.8 46.5 SSW | 193 6.1 13.6 SW | 214
5/7/26 - 1155 59.2 35 31.3 46.1 SSW | 206 5.1 11.4 SW | 214
5/7/26 - 1150 59.9 34 31.7 46.5 S | 189 3.6 10.8 S | 182
5/7/26 - 1145 59.1 35 31.4 46.0 S | 191 6.4 15.6 SW | 214
5/7/26 - 1140 59.6 34 31.2 46.2 S | 191 4.7 11.6 W | 260
5/7/26 - 1135 59.5 34 30.9 46.0 S | 183 5.6 11.5 SSE | 160
5/7/26 - 1130 59.1 33 30.4 45.7 S | 191 4.4 10.9 SSW | 200
5/7/26 - 1125 58.9 33 29.6 45.3 S | 183 6.0 13.8 SE | 142
5/7/26 - 1120 58.3 32 28.4 44.7 S | 183 7.2 15.6 S | 186
5/7/26 - 1115 58.2 32 28.4 44.7 S | 182 7.3 16.2 SSW | 211
5/7/26 - 1110 57.8 32 28.3 44.5 S | 178 7.4 13.9 S | 172
5/7/26 - 1105 57.7 32 27.9 44.3 S | 182 8.7 16.1 SSW | 210
5/7/26 - 1100 57.7 32 27.9 44.3 S | 182 8.4 17.2 S | 181
5/7/26 - 1055 57.0 32 27.3 43.8 S | 179 9.0 17.8 S | 177
5/7/26 - 1050 57.2 32 27.8 44.1 S | 186 9.8 19.8 SSW | 202
5/7/26 - 1045 57.6 33 28.6 44.5 S | 176 6.8 14.4 SSW | 203
5/7/26 - 1040 57.2 33 28.6 44.3 S | 179 8.9 16.4 S | 184
5/7/26 - 1035 56.9 34 28.9 44.2 S | 184 9.8 21.2 S | 181
5/7/26 - 1030 57.2 32 27.8 44.1 S | 171 8.4 18.3 SSW | 194
5/7/26 - 1025 57.2 33 28.1 44.2 S | 170 7.2 18.8 S | 174
5/7/26 - 1020 57.0 33 28.0 44.0 S | 181 7.0 14.7 S | 183
5/7/26 - 1015 57.1 33 28.4 44.2 S | 178 8.0 17.0 S | 172
5/7/26 - 1010 57.1 33 28.4 44.2 S | 187 5.5 13.2 SSW | 202
5/7/26 - 1005 56.8 33 27.9 43.9 S | 171 6.0 16.4 SSW | 202
5/7/26 - 1000 56.7 33 27.8 43.8 S | 178 8.2 17.4 S | 183
5/7/26 - 0955 56.5 33 27.8 43.8 S | 187 8.3 18.3 SSW | 200
5/7/26 - 0950 56.6 33 27.8 43.8 SSE | 152 5.3 18.4 S | 181
5/7/26 - 0945 56.6 34 28.3 43.9 S | 172 4.6 14.2 SE | 146
5/7/26 - 0940 56.4 34 28.3 43.9 S | 172 7.8 17.1 SSE | 163
5/7/26 - 0935 57.0 33 28.5 44.2 SSE | 163 3.2 10.2 SSW | 199
5/7/26 - 0930 55.7 34 27.6 43.3 SSE | 156 5.9 20.3 S | 177
5/7/26 - 0925 55.6 34 27.5 43.2 SSE | 156 7.1 17.6 SSW | 195
5/7/26 - 0920 56.2 34 28.5 43.8 SSE | 164 4.5 14.0 SSW | 194
5/7/26 - 0915 55.8 35 28.4 43.6 SSE | 168 7.0 15.5 S | 181
5/7/26 - 0910 55.8 35 28.9 43.8 SSE | 163 5.7 13.7 SSE | 153
5/7/26 - 0905 55.6 35 28.8 43.6 SSE | 150 5.3 14.5 ESE | 122
5/7/26 - 0900 56.2 35 28.6 43.8 SSE | 150 4.5 11.3 S | 180
5/7/26 - 0855 56.0 36 29.5 44.0 SE | 145 3.7 12.2 SSE | 155
5/7/26 - 0850 56.1 36 29.7 44.1 SSE | 152 2.9 8.9 ESE | 117
5/7/26 - 0845 56.0 36 29.4 44.0 SE | 134 2.5 8.3 SSE | 159
5/7/26 - 0840 55.8 35 28.8 43.7 SE | 128 1.8 5.8 ESE | 113
5/7/26 - 0835 56.9 35 29.7 44.5 SE | 138 0.6 3.3 E | 100
5/7/26 - 0830 57.6 36 30.7 45.2 S | 173 0.0 1.2 S | 175
5/7/26 - 0825 56.4 36 29.6 44.3 NNE | 23 0.2 1.8 NNE | 21
5/7/26 - 0820 56.5 37 30.4 44.6 E | 88 0.0 0.1 ESE | 113
5/7/26 - 0815 55.5 37 29.8 43.9 NW | 321 0.0 1.0 NW | 316
5/7/26 - 0810 54.4 37 28.5 43.0 NNW | 338 0.7 2.8 NNW | 332
5/7/26 - 0805 54.8 37 28.9 43.3 N | 0 0.0 0.0 SE | 130
5/7/26 - 0800 54.7 36 28.4 43.1 N | 0 0.0 0.0 NNE | 15
5/7/26 - 0755 53.2 36 27.1 42.0 N | 0 0.0 0.0 N | 0
5/7/26 - 0750 51.6 36 25.5 40.8 N | 0 0.0 0.0 ENE | 60
5/7/26 - 0745 50.3 37 25.0 39.9 WNW | 303 0.0 0.7 NW | 313
5/7/26 - 0740 49.0 36 23.4 38.8 NNE | 18 0.1 0.9 NNW | 347
5/7/26 - 0735 48.8 36 23.3 38.7 N | 0 0.0 0.0 WNW | 299
5/7/26 - 0730 48.1 36 22.5 38.1 NNW | 328 0.0 0.8 NW | 316
5/7/26 - 0725 48.0 35 21.7 37.8 N | 0 0.0 0.0 SE | 126
5/7/26 - 0720 46.3 37 21.2 36.8 N | 0 0.0 0.0 SE | 126
5/7/26 - 0715 44.8 37 20.1 35.7 SE | 140 0.4 1.7 SE | 144
5/7/26 - 0710 45.2 37 20.6 36.0 NNW | 347 0.0 1.0 NNW | 341
5/7/26 - 0705 44.7 37 19.9 35.6 NNW | 348 0.2 2.2 N | 0
5/7/26 - 0700 44.0 37 19.7 35.2 SSE | 168 0.0 0.6 SSE | 164
5/7/26 - 0655 44.3 38 20.5 35.5 S | 186 0.0 0.8 SSW | 193
5/7/26 - 0650 44.7 38 20.7 35.8 SSE | 161 0.0 1.1 S | 186
5/7/26 - 0645 44.9 38 20.8 36.0 W | 269 0.2 1.3 W | 275
5/7/26 - 0640 44.3 38 20.2 35.5 WSW | 254 0.8 2.8 W | 266
5/7/26 - 0635 42.6 38 18.8 34.1 W | 269 0.1 1.9 W | 266
5/7/26 - 0630 42.1 37 17.7 33.6 WSW | 255 0.2 2.3 SW | 224
5/7/26 - 0625 40.7 37 16.5 32.5 E | 101 0.0 0.2 E | 101
5/7/26 - 0620 39.6 38 16.0 31.8 N | 0 0.0 0.0 NW | 317
5/7/26 - 0615 39.6 38 15.8 31.7 S | 183 0.1 1.7 SW | 219
5/7/26 - 0610 39.3 37 15.0 31.3 SSW | 210 0.1 1.5 SSW | 203
5/7/26 - 0605 39.6 36 15.0 31.6 SSW | 205 0.1 1.4 SSW | 205
5/7/26 - 0600 40.2 35 14.9 31.9 SSW | 197 1.4 4.0 SSW | 212
5/7/26 - 0555 40.0 35 14.9 31.7 SSW | 200 0.5 3.0 SSW | 198
5/7/26 - 0550 40.7 35 15.4 32.3 SSW | 209 2.0 4.6 SSW | 193
5/7/26 - 0545 41.9 36 16.9 33.3 SW | 226 0.7 2.8 SSW | 201
5/7/26 - 0540 41.9 36 16.7 33.2 WSW | 244 1.4 3.0 WSW | 240
5/7/26 - 0535 40.7 36 15.9 32.4 SSW | 213 0.7 2.5 SSW | 204
5/7/26 - 0530 41.0 36 16.3 32.7 SW | 231 0.8 3.0 WSW | 239
5/7/26 - 0525 40.9 36 16.2 32.6 SW | 218 0.7 2.5 SW | 226
5/7/26 - 0520 40.5 36 15.8 32.2 SSW | 205 0.9 4.7 SSW | 194
5/7/26 - 0515 41.6 36 16.7 33.1 WSW | 241 2.6 4.6 WSW | 246
5/7/26 - 0510 41.5 36 16.8 33.1 SW | 228 1.7 4.1 W | 261
5/7/26 - 0505 42.7 36 17.9 34.0 SW | 232 2.3 5.4 SW | 218
5/7/26 - 0500 42.3 37 17.9 33.8 SW | 228 2.0 4.5 SW | 236
5/7/26 - 0455 42.8 37 18.1 34.1 SW | 226 2.5 4.5 SSW | 206
5/7/26 - 0450 42.4 36 17.7 33.8 SW | 235 1.9 5.0 SW | 232
5/7/26 - 0445 43.0 36 18.0 34.2 WSW | 242 2.1 4.8 W | 269
5/7/26 - 0440 43.4 36 18.1 34.4 SW | 235 2.2 4.3 WSW | 240
5/7/26 - 0435 43.4 35 17.7 34.3 SW | 228 2.5 5.5 SW | 227
5/7/26 - 0430 43.0 34 16.6 33.9 SW | 230 1.9 5.3 SW | 224
5/7/26 - 0425 43.2 34 16.4 33.9 SW | 233 2.0 5.5 SW | 232
5/7/26 - 0420 42.6 34 16.0 33.5 SW | 233 1.3 3.6 SW | 229
5/7/26 - 0415 43.4 34 16.7 34.1 SW | 222 1.9 4.1 SW | 228
5/7/26 - 0410 43.4 34 16.9 34.2 SW | 230 2.1 5.2 SW | 222
5/7/26 - 0405 43.7 35 17.6 34.5 SW | 224 2.6 5.9 SW | 221
5/7/26 - 0400 43.0 35 17.4 34.1 SW | 230 1.9 5.3 SW | 223
5/7/26 - 0355 42.3 35 16.5 33.5 WSW | 241 0.5 2.0 WSW | 256
5/7/26 - 0350 43.2 34 16.5 33.9 SW | 231 1.6 5.0 SW | 224
5/7/26 - 0345 43.1 34 16.7 34.0 SW | 223 1.8 5.2 SW | 214
5/7/26 - 0340 42.9 35 17.1 33.9 SW | 226 1.1 2.7 SW | 233
5/7/26 - 0335 43.2 35 17.1 34.1 SW | 223 1.3 4.5 SSW | 192
5/7/26 - 0330 42.6 34 16.3 33.6 SW | 227 0.9 4.1 SSW | 198
5/7/26 - 0325 43.0 34 16.4 33.8 SW | 230 1.0 4.1 SW | 229
5/7/26 - 0320 43.3 34 16.6 34.0 SW | 217 1.6 4.9 SW | 217
5/7/26 - 0315 42.4 34 16.4 33.5 SW | 214 0.5 2.8 SSW | 196
5/7/26 - 0310 42.0 34 15.6 33.0 WSW | 240 0.7 3.1 WSW | 247
5/7/26 - 0305 42.5 33 15.6 33.3 WSW | 248 2.5 4.9 WSW | 249
5/7/26 - 0300 41.9 34 15.3 32.9 WSW | 246 0.6 3.2 W | 275
5/7/26 - 0255 41.4 35 15.5 32.7 SW | 234 0.5 3.8 WSW | 237
5/7/26 - 0250 42.3 34 16.0 33.3 SW | 230 1.5 3.1 SW | 232
5/7/26 - 0245 42.1 33 14.8 33.0 SW | 228 0.8 2.7 WSW | 249
5/7/26 - 0240 40.9 34 14.9 32.3 SW | 224 0.1 1.3 SW | 231
5/7/26 - 0235 41.2 34 14.8 32.4 SW | 236 0.0 0.7 SSW | 203
5/7/26 - 0230 42.4 33 15.7 33.3 WSW | 247 1.0 4.2 WSW | 246
5/7/26 - 0225 42.9 33 15.9 33.7 WSW | 244 1.6 4.2 WSW | 246
5/7/26 - 0220 42.8 33 15.5 33.5 SW | 232 1.0 3.7 WSW | 256
5/7/26 - 0215 41.6 31 13.4 32.4 SW | 222 0.2 2.6 SSW | 200
5/7/26 - 0210 41.4 32 13.7 32.3 SW | 225 0.2 2.0 SSW | 212
5/7/26 - 0205 41.9 32 14.2 32.7 SW | 230 0.6 3.8 WSW | 239
5/7/26 - 0200 42.0 32 14.5 32.8 SW | 236 0.6 3.0 SW | 232
5/7/26 - 0155 42.7 32 14.6 33.2 SW | 233 1.4 3.4 SW | 231
5/7/26 - 0150 41.9 32 14.1 32.7 SW | 226 0.5 2.0 SW | 231
5/7/26 - 0145 42.4 32 14.8 33.2 SW | 221 1.4 3.5 SSW | 211
5/7/26 - 0140 41.5 32 13.8 32.4 SSW | 205 0.4 2.1 SSW | 213
5/7/26 - 0135 42.0 31 13.8 32.7 W | 260 0.0 2.1 WSW | 248
5/7/26 - 0130 43.0 32 14.9 33.5 SW | 235 1.5 4.1 WSW | 242
5/7/26 - 0125 42.0 31 13.8 32.7 SW | 215 0.8 3.1 SSW | 213
5/7/26 - 0120 40.9 31 12.6 31.8 SSW | 195 0.2 1.3 SSW | 193
5/7/26 - 0115 40.6 31 12.1 31.5 N | 0 0.0 0.0 NE | 47
5/7/26 - 0110 40.9 31 12.3 31.8 SSW | 202 0.4 2.6 SSW | 194
5/7/26 - 0105 41.5 30 12.3 32.1 SSW | 203 1.2 3.9 S | 180
5/7/26 - 0100 41.9 30 12.5 32.4 SSW | 204 1.1 3.6 S | 183
5/7/26 - 0055 42.4 30 13.0 32.8 SSW | 193 1.0 3.7 SSE | 166
5/7/26 - 0050 43.0 29 13.2 33.2 SSW | 196 0.8 2.9 SSW | 198
5/7/26 - 0045 43.3 30 13.7 33.4 SSW | 200 1.0 3.0 SW | 217
5/7/26 - 0040 43.4 31 14.5 33.6 SW | 214 0.6 2.8 SSW | 205
5/7/26 - 0035 43.0 32 15.4 33.6 SSW | 204 1.1 4.3 SSW | 200
5/7/26 - 0030 43.2 32 15.0 33.6 SW | 236 1.0 2.3 WSW | 239
5/7/26 - 0025 43.1 31 14.7 33.5 WSW | 248 0.5 2.2 W | 262
5/7/26 - 0020 43.4 32 15.2 33.8 W | 260 1.4 3.4 W | 260
5/7/26 - 0015 43.6 30 14.0 33.7 WSW | 257 1.3 3.6 WSW | 254
5/7/26 - 0010 43.4 30 14.0 33.5 WSW | 258 1.4 3.5 W | 262
5/7/26 - 0005 43.6 30 14.3 33.7 WSW | 258 1.2 3.9 W | 265
5/7/26 - 0000 43.9 31 14.9 34.0 WSW | 248 1.5 3.8 WSW | 252
5/6/26 - 2355 44.0 31 15.1 34.1 WSW | 255 1.5 3.6 WSW | 258
5/6/26 - 2350 44.0 30 14.8 34.0 W | 261 1.7 3.4 W | 262
5/6/26 - 2345 44.1 30 14.8 34.1 WSW | 254 1.9 3.4 WSW | 249
5/6/26 - 2340 44.3 30 14.8 34.2 WSW | 252 1.6 3.9 WSW | 245
5/6/26 - 2335 43.9 29 13.8 33.8 WSW | 252 1.4 3.1 W | 263
5/6/26 - 2330 44.1 30 14.3 34.0 WSW | 258 1.1 2.4 SW | 233
5/6/26 - 2325 43.7 31 14.8 33.9 WSW | 254 1.8 4.5 WSW | 255
5/6/26 - 2320 43.7 30 14.3 33.8 WSW | 253 1.2 3.0 WSW | 246
5/6/26 - 2315 43.5 30 14.0 33.6 WSW | 254 0.7 2.1 WSW | 258
5/6/26 - 2310 43.6 29 13.5 33.6 WSW | 255 0.9 2.9 W | 264
5/6/26 - 2305 44.0 29 13.6 33.8 WSW | 251 1.1 3.1 WSW | 257
5/6/26 - 2300 44.3 29 14.1 34.1 WSW | 248 1.2 4.0 WSW | 244
5/6/26 - 2255 44.4 28 13.7 34.1 WSW | 240 1.2 3.9 W | 261
5/6/26 - 2250 44.2 29 13.6 33.9 WSW | 257 0.7 3.0 W | 266
5/6/26 - 2245 44.3 29 13.8 34.0 WSW | 258 1.1 3.2 SW | 233
5/6/26 - 2240 44.8 28 13.7 34.3 WSW | 243 0.9 3.2 WSW | 255
5/6/26 - 2235 44.7 28 13.4 34.1 WSW | 249 0.6 2.6 SSW | 203
5/6/26 - 2230 44.8 27 13.1 34.2 WSW | 243 0.3 2.7 WSW | 248
5/6/26 - 2225 44.4 28 13.2 34.0 WSW | 250 2.4 3.7 WSW | 256
5/6/26 - 2220 44.2 27 12.1 33.6 WSW | 258 1.4 3.4 W | 266
5/6/26 - 2215 44.6 27 12.6 33.9 WSW | 258 2.0 4.2 WSW | 253
5/6/26 - 2210 44.8 27 12.9 34.1 WSW | 247 0.8 2.7 WSW | 257
5/6/26 - 2205 44.9 27 13.2 34.2 SW | 232 - - SSW | 198
5/6/26 - 2200 44.9 28 13.4 34.3 WSW | 257 0.6 3.0 W | 260
5/6/26 - 2155 45.4 27 13.5 34.6 WSW | 251 1.3 3.6 WSW | 255
5/6/26 - 2150 45.0 27 13.0 34.2 WSW | 250 0.3 2.2 WSW | 250
5/6/26 - 2145 45.3 27 13.2 34.4 WSW | 252 0.5 2.6 W | 262
5/6/26 - 2140 45.3 27 13.5 34.5 WSW | 258 1.2 3.0 W | 266
5/6/26 - 2135 46.0 27 14.2 35.0 W | 260 0.9 2.2 W | 265
5/6/26 - 2130 45.6 27 13.8 34.8 WSW | 250 0.4 2.6 WSW | 249
5/6/26 - 2125 46.0 27 14.1 35.0 WSW | 257 0.8 2.5 WSW | 256
5/6/26 - 2120 46.3 27 13.9 35.2 WSW | 254 0.4 2.3 W | 260
5/6/26 - 2115 46.3 27 13.9 35.2 WSW | 252 0.5 2.1 WSW | 249
5/6/26 - 2110 46.3 27 14.0 35.2 WSW | 249 1.0 2.7 WSW | 254
5/6/26 - 2105 47.0 26 14.1 35.6 WSW | 258 1.7 3.1 WSW | 255
5/6/26 - 2100 46.7 26 13.5 35.3 WSW | 257 2.0 3.7 WSW | 251
5/6/26 - 2055 47.3 26 14.3 35.7 WSW | 248 1.0 3.6 WSW | 249
5/6/26 - 2050 47.4 26 14.4 35.8 WSW | 238 0.2 1.8 WSW | 243
5/6/26 - 2045 47.9 26 14.4 36.1 W | 259 1.3 3.6 W | 263
5/6/26 - 2040 48.1 26 14.4 36.2 W | 264 0.9 3.4 WSW | 257
Max 61.8 38 31.8 46.8 - 9.8 21.2 -
Avg 51.0 30 20.5 39.0 - 2.7 7.5 -
Min 39.3 22 11.9 31.3 - 0.0 0.0 -